Time;durP1;ratioP1;P1;durP2;ratioP2;P2;SDS_P1;SDS_P2;PMS_P1;PMS_P2;Temp;Humidity;BMP_temperature;BMP_pressure;BME280_temperature;BME280_humidity;BME280_pressure;Samples;Min_cycle;Max_cycle;Signal;HPM_P1;HPM_P2
2023/04/28 00:01:30;;;;;;;13.00;9.90;;;;;;;8.02;100.00;100466.58;105886;1254;66874;-50
2023/04/28 00:03:57;;;;;;;14.80;10.40;;;;;;;8.00;100.00;100464.54;105842;1253;74577;-51
2023/04/28 00:06:25;;;;;;;14.20;10.20;;;;;;;7.97;100.00;100464.40;105807;1258;62499;-50
2023/04/28 00:08:52;;;;;;;11.60;9.80;;;;;;;7.96;100.00;100466.45;105759;1257;62548;-52
2023/04/28 00:11:19;;;;;;;17.00;9.40;;;;;;;7.94;100.00;100469.39;105845;1257;76540;-50
2023/04/28 00:13:46;;;;;;;10.10;7.90;;;;;;;7.93;100.00;100471.30;105870;1254;66821;-51
2023/04/28 00:16:13;;;;;;;9.00;7.20;;;;;;;7.92;100.00;100471.12;105900;1254;75135;-50
2023/04/28 00:18:40;;;;;;;12.20;7.80;;;;;;;7.90;100.00;100477.50;105768;1257;63223;-52
2023/04/28 00:21:07;;;;;;;10.00;7.30;;;;;;;7.88;100.00;100474.94;105916;1254;60750;-52
2023/04/28 00:23:35;;;;;;;9.10;6.60;;;;;;;7.84;100.00;100473.59;105845;1254;76157;-52
2023/04/28 00:26:02;;;;;;;9.40;6.60;;;;;;;7.80;100.00;100474.98;105861;1254;67021;-52
2023/04/28 00:28:29;;;;;;;10.10;7.50;;;;;;;7.80;100.00;100478.78;105854;1257;74346;-50
2023/04/28 00:31:01;;;;;;;7.80;6.60;;;;;;;7.77;100.00;100483.60;105719;1254;64071;-53
2023/04/28 00:33:28;;;;;;;7.40;6.60;;;;;;;7.74;100.00;100484.48;105881;1254;61849;-51
2023/04/28 00:35:59;;;;;;;7.50;6.60;;;;;;;7.74;100.00;100487.41;105643;1259;75123;-51
2023/04/28 00:38:27;;;;;;;9.20;6.40;;;;;;;7.72;100.00;100492.75;105863;1256;66297;-53
2023/04/28 00:40:55;;;;;;;11.90;6.30;;;;;;;7.71;100.00;100492.23;105774;1256;74284;-52
2023/04/28 00:43:22;;;;;;;8.30;6.30;;;;;;;7.68;100.00;100488.27;105539;1257;63415;-53
2023/04/28 00:45:50;;;;;;;8.20;6.20;;;;;;;7.66;100.00;100489.67;105756;1254;63333;-52
2023/04/28 00:48:18;;;;;;;8.90;5.60;;;;;;;7.66;100.00;100489.34;105785;1254;76321;-53
2023/04/28 00:50:46;;;;;;;8.00;6.40;;;;;;;7.66;100.00;100492.59;105703;1254;66912;-51
2023/04/28 00:53:13;;;;;;;8.90;5.70;;;;;;;7.64;100.00;100494.32;105921;1256;74448;-52
2023/04/28 00:55:40;;;;;;;7.50;5.80;;;;;;;7.63;100.00;100492.96;105879;1252;64878;-50
2023/04/28 00:58:08;;;;;;;12.80;6.40;;;;;;;7.63;100.00;100493.30;105741;1252;62771;-51
2023/04/28 01:00:35;;;;;;;9.40;5.70;;;;;;;7.60;100.00;100491.95;105737;1256;74890;-51
2023/04/28 01:03:02;;;;;;;8.80;5.80;;;;;;;7.59;100.00;100494.52;105655;1257;67363;-50
2023/04/28 01:05:32;;;;;;;10.30;6.40;;;;;;;7.58;100.00;100491.27;105776;1257;74242;-51
2023/04/28 01:07:59;;;;;;;7.10;6.00;;;;;;;7.57;100.00;100495.56;105667;1254;63610;-51
2023/04/28 01:10:26;;;;;;;8.90;5.90;;;;;;;7.57;100.00;100495.40;105864;1257;61885;-53
2023/04/28 01:12:54;;;;;;;8.00;5.70;;;;;;;7.57;100.00;100494.70;105840;1254;74296;-51
2023/04/28 01:15:21;;;;;;;10.10;5.50;;;;;;;7.55;100.00;100489.39;105699;1257;66739;-51
2023/04/28 01:17:50;;;;;;;10.30;6.10;;;;;;;7.56;100.00;100493.00;105666;1254;75040;-52
2023/04/28 01:20:17;;;;;;;8.40;5.80;;;;;;;7.57;100.00;100492.65;105842;1254;64711;-50
2023/04/28 01:22:45;;;;;;;9.70;6.20;;;;;;;7.56;100.00;100497.46;105686;1257;61458;-54
2023/04/28 01:25:12;;;;;;;7.00;4.90;;;;;;;7.54;100.00;100496.10;105813;1257;76331;-54
2023/04/28 01:27:39;;;;;;;6.20;5.40;;;;;;;7.53;100.00;100501.60;105839;1254;66554;-53
2023/04/28 01:30:07;;;;;;;14.20;6.10;;;;;;;7.52;100.00;100507.61;105899;1254;74516;-51
2023/04/28 01:32:35;;;;;;;9.60;6.40;;;;;;;7.53;100.00;100509.33;105882;1257;63482;-59
2023/04/28 01:35:02;;;;;;;11.10;6.50;;;;;;;7.53;100.00;100512.94;105720;1258;61909;-55
2023/04/28 01:37:29;;;;;;;11.40;6.70;;;;;;;7.53;100.00;100516.02;105668;1254;75199;-51
2023/04/28 01:39:56;;;;;;;8.90;6.40;;;;;;;7.54;100.00;100521.33;105906;1254;67024;-53
2023/04/28 01:42:23;;;;;;;10.10;6.80;;;;;;;7.53;100.00;100518.94;105797;1253;74064;-51
2023/04/28 01:44:51;;;;;;;9.70;6.70;;;;;;;7.52;100.00;100527.02;105701;1253;64403;-51
2023/04/28 01:47:19;;;;;;;13.30;6.90;;;;;;;7.50;100.00;100531.50;105843;1253;62766;-52
2023/04/28 01:49:48;;;;;;;11.90;7.30;;;;;;;7.48;100.00;100536.66;105792;1253;75407;-53
2023/04/28 01:52:15;;;;;;;11.60;7.80;;;;;;;7.48;100.00;100537.52;105680;1253;67429;-51
2023/04/28 01:54:43;;;;;;;11.40;8.00;;;;;;;7.49;100.00;100541.11;105700;1253;75564;-52
2023/04/28 01:57:10;;;;;;;16.20;9.30;;;;;;;7.50;100.00;100541.46;105812;1253;62857;-51
2023/04/28 01:59:37;;;;;;;16.00;8.50;;;;;;;7.48;100.00;100540.95;105791;1259;62109;-51
2023/04/28 02:02:05;;;;;;;14.00;9.10;;;;;;;7.47;100.00;100541.64;105651;1258;74557;-53
2023/04/28 02:04:32;;;;;;;12.30;8.60;;;;;;;7.44;100.00;100544.90;105895;1253;67817;-54
2023/04/28 02:06:59;;;;;;;11.50;8.70;;;;;;;7.43;100.00;100541.81;105821;1253;74091;-52
2023/04/28 02:09:26;;;;;;;16.40;11.00;;;;;;;7.43;100.00;100548.69;105647;1254;62821;-52
2023/04/28 02:11:55;;;;;;;17.20;10.30;;;;;;;7.43;100.00;100559.68;105829;1257;62906;-53
2023/04/28 02:14:22;;;;;;;16.10;10.60;;;;;;;7.42;100.00;100566.89;105863;1253;75207;-53
2023/04/28 02:16:49;;;;;;;13.40;9.30;;;;;;;7.43;100.00;100567.57;105688;1253;65905;-52
2023/04/28 02:19:16;;;;;;;15.10;10.60;;;;;;;7.43;100.00;100565.86;105714;1253;73110;-52
2023/04/28 02:21:43;;;;;;;15.90;11.10;;;;;;;7.41;100.00;100568.45;105715;1253;64738;-52
2023/04/28 02:24:12;;;;;;;18.10;11.00;;;;;;;7.40;100.00;100568.80;105880;1257;63132;-53
2023/04/28 02:26:40;;;;;;;16.70;11.90;;;;;;;7.41;100.00;100572.40;105700;1253;75565;-51
2023/04/28 02:29:07;;;;;;;15.90;10.40;;;;;;;7.42;100.00;100572.05;105722;1253;65567;-53
2023/04/28 02:31:34;;;;;;;16.30;10.60;;;;;;;7.41;100.00;100566.39;105836;1253;73255;-52
2023/04/28 02:34:01;;;;;;;17.80;11.60;;;;;;;7.41;100.00;100561.92;105694;1256;63293;-52
2023/04/28 02:36:28;;;;;;;20.20;11.40;;;;;;;7.42;100.00;100559.67;105804;1254;62685;-52
2023/04/28 02:38:55;;;;;;;14.90;11.40;;;;;;;7.42;100.00;100562.27;105845;1258;76095;-52
2023/04/28 02:41:23;;;;;;;14.20;11.10;;;;;;;7.41;100.00;100568.09;105844;1253;65531;-52
2023/04/28 02:43:51;;;;;;;17.30;11.10;;;;;;;7.41;100.00;100570.33;105858;1253;74237;-53
2023/04/28 02:46:18;;;;;;;18.10;11.00;;;;;;;7.40;100.00;100568.97;105708;1254;63396;-51
2023/04/28 02:48:45;;;;;;;12.60;10.10;;;;;;;7.40;100.00;100567.60;105742;1258;61773;-53
2023/04/28 02:51:13;;;;;;;16.80;9.90;;;;;;;7.41;100.00;100570.34;105807;1253;74521;-51
2023/04/28 02:53:40;;;;;;;18.70;10.10;;;;;;;7.42;100.00;100575.14;105886;1253;67565;-53
2023/04/28 02:56:08;;;;;;;13.20;9.60;;;;;;;7.41;100.00;100581.51;105693;1256;74490;-53
2023/04/28 02:58:35;;;;;;;11.90;9.40;;;;;;;7.42;100.00;100583.73;105690;1253;63427;-51
2023/04/28 03:01:03;;;;;;;12.70;9.10;;;;;;;7.42;100.00;100586.98;105674;1253;61563;-51
2023/04/28 03:03:30;;;;;;;10.90;7.90;;;;;;;7.44;100.00;100593.84;105796;1252;75630;-51
2023/04/28 03:05:57;;;;;;;12.50;8.30;;;;;;;7.46;100.00;100589.73;105730;1257;65976;-52
2023/04/28 03:08:24;;;;;;;11.00;7.10;;;;;;;7.48;100.00;100591.77;105652;1254;74150;-53
2023/04/28 03:10:52;;;;;;;11.40;8.60;;;;;;;7.49;100.00;100597.44;105746;1253;64642;-52
2023/04/28 03:13:19;;;;;;;11.70;9.60;;;;;;;7.49;100.00;100599.16;105869;1252;61623;-53
2023/04/28 03:15:49;;;;;;;20.70;9.00;;;;;;;7.50;100.00;100606.20;105827;1257;76642;-50
2023/04/28 03:18:17;;;;;;;11.60;9.20;;;;;;;7.51;100.00;100609.98;105634;1253;66915;-53
2023/04/28 03:20:44;;;;;;;10.10;9.10;;;;;;;7.50;100.00;100612.39;105732;1253;73371;-52
2023/04/28 03:23:11;;;;;;;11.40;10.10;;;;;;;7.50;100.00;100616.16;105657;1254;64182;-52
2023/04/28 03:25:38;;;;;;;16.20;8.70;;;;;;;7.48;100.00;100620.12;105687;1258;63347;-54
2023/04/28 03:28:05;;;;;;;9.70;8.60;;;;;;;7.47;100.00;100627.68;105863;1257;76429;-52
2023/04/28 03:30:32;;;;;;;11.30;7.90;;;;;;;7.48;100.00;100634.54;105684;1253;65920;-53
2023/04/28 03:32:59;;;;;;;12.90;7.70;;;;;;;7.51;100.00;100638.48;105643;1258;74233;-51
2023/04/28 03:35:27;;;;;;;12.90;8.50;;;;;;;7.52;100.00;100637.45;105874;1253;63535;-53
2023/04/28 03:37:54;;;;;;;8.90;7.50;;;;;;;7.52;100.00;100642.94;105824;1258;61731;-53
2023/04/28 03:40:22;;;;;;;16.10;8.40;;;;;;;7.52;100.00;100642.25;105805;1254;74815;-52
2023/04/28 03:43:21;;;;;;;10.30;7.80;;;;;;;7.55;100.00;100644.65;105469;1253;67137;-55
2023/04/28 03:46:03;;;;;;;11.30;7.60;;;;;;;7.57;100.00;100647.91;105889;1253;73385;-55
2023/04/28 03:48:30;;;;;;;10.00;8.10;;;;;;;7.59;100.00;100642.23;105806;1253;62690;-54
2023/04/28 03:50:58;;;;;;;10.20;7.50;;;;;;;7.61;100.00;100645.31;105628;1258;62499;-51
2023/04/28 03:53:25;;;;;;;11.90;8.10;;;;;;;7.63;100.00;100654.23;105757;1259;76372;-53
2023/04/28 03:55:53;;;;;;;8.00;6.80;;;;;;;7.61;100.00;100663.36;105795;1258;66142;-53
2023/04/28 03:58:20;;;;;;;9.60;6.60;;;;;;;7.61;100.00;100671.09;105605;1253;75045;-52
2023/04/28 04:00:47;;;;;;;13.40;6.60;;;;;;;7.63;100.00;100680.86;105766;1257;63484;-53
2023/04/28 04:03:14;;;;;;;9.40;6.30;;;;;;;7.64;100.00;100687.91;105803;1253;62721;-52
2023/04/28 04:05:42;;;;;;;6.70;6.00;;;;;;;7.66;100.00;100696.14;105869;1258;75115;-52
2023/04/28 04:08:09;;;;;;;6.20;5.60;;;;;;;7.70;100.00;100706.10;105636;1254;66701;-53
2023/04/28 04:10:37;;;;;;;9.90;4.80;;;;;;;7.72;100.00;100714.02;105740;1253;73773;-53
2023/04/28 04:13:04;;;;;;;6.90;4.70;;;;;;;7.72;100.00;100725.86;105833;1253;63649;-52
2023/04/28 04:15:31;;;;;;;8.20;4.70;;;;;;;7.72;100.00;100736.52;105674;1258;61761;-53
2023/04/28 04:17:59;;;;;;;5.70;4.90;;;;;;;7.73;100.00;100743.55;105849;1257;76632;-52
2023/04/28 04:20:29;;;;;;;5.20;4.70;;;;;;;7.73;100.00;100752.65;105652;1253;66498;-53
2023/04/28 04:22:56;;;;;;;5.90;5.20;;;;;;;7.72;100.00;100763.14;105809;1254;74877;-54
2023/04/28 04:25:23;;;;;;;5.90;4.60;;;;;;;7.70;100.00;100770.88;105820;1259;63414;-51
2023/04/28 04:27:50;;;;;;;5.60;4.50;;;;;;;7.69;100.00;100772.58;105806;1259;63060;-52
2023/04/28 04:30:17;;;;;;;4.70;4.30;;;;;;;7.71;100.00;100779.64;105703;1259;76368;-52
2023/04/28 04:32:44;;;;;;;3.80;3.50;;;;;;;7.73;100.00;100785.13;105671;1258;65923;-52
2023/04/28 04:35:11;;;;;;;6.30;4.10;;;;;;;7.74;100.00;100794.23;105649;1258;74397;-54
2023/04/28 04:37:39;;;;;;;6.00;3.90;;;;;;;7.75;100.00;100801.79;105841;1253;64795;-53
2023/04/28 04:40:07;;;;;;;6.20;3.40;;;;;;;7.75;100.00;100812.61;105892;1257;62162;-52
2023/04/28 04:42:39;;;;;;;3.50;3.30;;;;;;;7.77;100.00;100814.50;105771;1253;75593;-52
2023/04/28 04:45:11;;;;;;;3.50;3.20;;;;;;;7.79;100.00;100821.20;105858;1256;67272;-54
2023/04/28 04:47:39;;;;;;;7.30;3.20;;;;;;;7.81;100.00;100820.00;105805;1253;74809;-52
2023/04/28 04:50:06;;;;;;;4.30;3.70;;;;;;;7.84;100.00;100831.33;105680;1253;63527;-52
2023/04/28 04:52:33;;;;;;;9.60;3.30;;;;;;;7.87;100.00;100839.23;105688;1257;62514;-53
2023/04/28 04:55:01;;;;;;;4.40;3.90;;;;;;;7.89;100.00;100851.77;105858;1253;75645;-51
2023/04/28 04:57:28;;;;;;;4.20;3.00;;;;;;;7.91;100.00;100859.32;105828;1253;65864;-54
2023/04/28 05:00:05;;;;;;;3.10;2.90;;;;;;;7.93;100.00;100871.18;105846;1252;74184;-59
2023/04/28 05:02:32;;;;;;;5.40;3.00;;;;;;;7.92;100.00;100878.23;105932;1253;64725;-59
2023/04/28 05:05:00;;;;;;;2.80;2.60;;;;;;;7.92;100.00;100882.87;105905;1257;63068;-52
2023/04/28 05:07:46;;;;;;;3.00;2.70;;;;;;;7.96;100.00;100893.88;105826;1254;76557;-58
2023/04/28 05:10:13;;;;;;;5.50;2.40;;;;;;;7.97;100.00;100893.53;105672;1258;66470;-52
2023/04/28 05:12:43;;;;;;;2.70;2.50;;;;;;;7.99;100.00;100899.89;105713;1254;75337;-53
2023/04/28 05:15:15;;;;;;;4.00;2.00;;;;;;;8.00;100.00;100907.80;105835;1253;64377;-53
2023/04/28 05:17:49;;;;;;;4.90;2.10;;;;;;;8.02;100.00;100914.66;105848;1255;62467;-53
2023/04/28 05:20:18;;;;;;;7.20;2.00;;;;;;;8.05;100.00;100918.96;105763;1258;74668;-53
2023/04/28 05:22:45;;;;;;;2.00;1.90;;;;;;;8.08;100.00;100921.70;105781;1259;66169;-53
2023/04/28 05:25:12;;;;;;;2.10;1.90;;;;;;;8.09;100.00;100921.36;105595;1253;74992;-51
2023/04/28 05:27:39;;;;;;;2.20;2.00;;;;;;;8.09;100.00;100921.54;105754;1257;63487;-53
2023/04/28 05:30:09;;;;;;;2.20;2.10;;;;;;;8.10;100.00;100919.48;105821;1257;62157;-51
2023/04/28 05:32:37;;;;;;;2.00;1.90;;;;;;;8.11;100.00;100918.96;105654;1254;76294;-54
2023/04/28 05:35:05;;;;;;;3.70;2.20;;;;;;;8.13;100.00;100918.10;105685;1254;66222;-53
2023/04/28 05:37:33;;;;;;;11.90;2.10;;;;;;;8.15;100.00;100917.05;105678;1253;74988;-56
2023/04/28 05:40:00;;;;;;;3.20;1.90;;;;;;;8.16;100.00;100919.63;105645;1258;64210;-54
2023/04/28 05:42:28;;;;;;;1.90;1.80;;;;;;;8.17;100.00;100919.80;105909;1257;62637;-51
2023/04/28 05:44:55;;;;;;;1.90;1.80;;;;;;;8.17;100.00;100917.73;105681;1259;76719;-52
2023/04/28 05:47:23;;;;;;;1.90;1.80;;;;;;;8.16;100.00;100913.61;105705;1253;66883;-52
2023/04/28 05:49:50;;;;;;;3.20;1.80;;;;;;;8.16;100.00;100919.80;105838;1253;75186;-53
2023/04/28 05:52:17;;;;;;;6.90;1.80;;;;;;;8.18;100.00;100923.59;105880;1253;63738;-53
2023/04/28 05:54:44;;;;;;;1.60;1.50;;;;;;;8.23;100.00;100924.96;105684;1258;61477;-53
2023/04/28 05:57:11;;;;;;;5.80;1.60;;;;;;;8.26;100.00;100924.61;105842;1253;74854;-54
2023/04/28 05:59:39;;;;;;;2.80;1.50;;;;;;;8.27;100.00;100921.18;105845;1254;67207;-54
2023/04/28 06:02:06;;;;;;;1.70;1.60;;;;;;;8.30;100.00;100919.62;105654;1256;73669;-53
2023/04/28 06:04:33;;;;;;;3.00;1.40;;;;;;;8.33;100.00;100919.62;105636;1259;63439;-53
2023/04/28 06:07:01;;;;;;;1.70;1.60;;;;;;;8.35;100.00;100916.01;105875;1259;61717;-53
2023/04/28 06:09:28;;;;;;;2.10;1.70;;;;;;;8.37;100.00;100913.25;105610;1259;76305;-52
2023/04/28 06:11:55;;;;;;;2.90;1.50;;;;;;;8.39;100.00;100910.49;105873;1253;65515;-52
2023/04/28 06:14:24;;;;;;;8.30;1.70;;;;;;;8.41;100.00;100910.65;105639;1256;72948;-51
2023/04/28 06:16:51;;;;;;;6.10;2.00;;;;;;;8.44;100.00;100905.30;105703;1253;62943;-52
2023/04/28 06:19:18;;;;;;;1.60;1.50;;;;;;;8.44;100.00;100900.85;105659;1259;61703;-52
2023/04/28 06:21:45;;;;;;;1.60;1.50;;;;;;;8.46;100.00;100898.44;105680;1257;76166;-52
2023/04/28 06:24:13;;;;;;;1.50;1.40;;;;;;;8.46;100.00;100887.26;105866;1253;66788;-52
2023/04/28 06:26:42;;;;;;;1.60;1.40;;;;;;;8.47;100.00;100877.29;105789;1256;75337;-53
2023/04/28 06:29:09;;;;;;;1.70;1.60;;;;;;;8.48;100.00;100870.06;105779;1253;63702;-52
2023/04/28 06:31:36;;;;;;;1.60;1.50;;;;;;;8.49;100.00;100860.27;105820;1255;61383;-52
2023/04/28 06:34:03;;;;;;;10.60;1.90;;;;;;;8.57;100.00;100858.35;105787;1259;76182;-52
2023/04/28 06:36:31;;;;;;;1.70;1.60;;;;;;;8.62;100.00;100845.61;105844;1257;66215;-52
2023/04/28 06:38:58;;;;;;;3.00;1.50;;;;;;;8.72;100.00;100844.70;105899;1253;74938;-54
2023/04/28 06:41:25;;;;;;;5.30;1.50;;;;;;;8.83;100.00;100835.88;105789;1253;64441;-55
2023/04/28 06:43:52;;;;;;;2.00;1.70;;;;;;;8.96;100.00;100831.67;105492;1257;61670;-54
2023/04/28 06:46:24;;;;;;;1.70;1.60;;;;;;;9.12;100.00;100831.07;105690;1254;74459;-55
2023/04/28 06:48:52;;;;;;;2.60;1.90;;;;;;;9.11;100.00;100812.30;105878;1253;66350;-54
2023/04/28 06:51:19;;;;;;;2.00;1.90;;;;;;;9.06;100.00;100789.77;105901;1257;73929;-54
2023/04/28 06:53:46;;;;;;;1.60;1.50;;;;;;;9.06;100.00;100772.90;105628;1255;63483;-53
2023/04/28 06:56:14;;;;;;;2.20;2.10;;;;;;;9.13;100.00;100766.33;105832;1254;62084;-53
2023/04/28 06:58:41;;;;;;;2.60;2.30;;;;;;;9.20;100.00;100766.26;105865;1257;76511;-52
2023/04/28 07:01:08;;;;;;;1.90;1.80;;;;;;;9.22;100.00;100755.38;105903;1254;67106;-53
2023/04/28 07:03:35;;;;;;;5.20;1.90;;;;;;;9.23;100.00;100748.34;105907;1254;74172;-53
2023/04/28 07:06:03;;;;;;;4.60;2.10;;;;;;;9.24;100.00;100740.23;105892;1256;63419;-53
2023/04/28 07:08:30;;;;;;;2.00;1.70;;;;;;;9.27;100.00;100738.83;105910;1258;61569;-53
2023/04/28 07:10:58;;;;;;;1.80;1.70;;;;;;;9.27;100.00;100738.83;105682;1257;75046;-53
2023/04/28 07:13:25;;;;;;;1.80;1.70;;;;;;;9.28;100.00;100741.93;105906;1257;66999;-52
2023/04/28 07:15:52;;;;;;;4.70;1.70;;;;;;;9.27;100.00;100739.34;105812;1257;75153;-53
2023/04/28 07:18:20;;;;;;;3.90;2.10;;;;;;;9.24;100.00;100740.59;105867;1257;63159;-51
2023/04/28 07:20:47;;;;;;;3.30;1.80;;;;;;;9.25;100.00;100751.24;105870;1257;62740;-53
2023/04/28 07:23:14;;;;;;;2.00;1.60;;;;;;;9.25;100.00;100748.84;105903;1257;76277;-53
2023/04/28 07:25:41;;;;;;;1.80;1.80;;;;;;;9.26;100.00;100754.50;105865;1254;67247;-53
2023/04/28 07:28:08;;;;;;;2.90;2.10;;;;;;;9.29;100.00;100748.63;105896;1260;74478;-53
2023/04/28 07:30:35;;;;;;;4.60;2.20;;;;;;;9.32;100.00;100737.41;105883;1254;63099;-53
2023/04/28 07:33:03;;;;;;;3.50;1.90;;;;;;;9.32;100.00;100711.23;105897;1254;61654;-53
2023/04/28 07:35:30;;;;;;;2.00;1.80;;;;;;;9.34;100.00;100689.33;105812;1257;76363;-53
2023/04/28 07:37:57;;;;;;;1.80;1.70;;;;;;;9.40;100.00;100677.40;105807;1258;66369;-53
2023/04/28 07:40:24;;;;;;;1.80;1.80;;;;;;;9.50;100.00;100676.09;105901;1256;74311;-53
2023/04/28 07:42:51;;;;;;;4.90;2.00;;;;;;;9.54;100.00;100655.02;105866;1254;62797;-53
2023/04/28 07:45:18;;;;;;;2.00;1.90;;;;;;;9.55;100.00;100627.96;105818;1267;60925;-53
2023/04/28 07:47:45;;;;;;;1.90;1.80;;;;;;;9.56;100.00;100607.80;105808;1259;76299;-53
2023/04/28 07:50:12;;;;;;;1.30;1.30;;;;;;;9.57;100.00;100600.20;105761;1253;67883;-53
2023/04/28 07:52:39;;;;;;;2.10;2.00;;;;;;;9.59;100.00;100597.77;105732;1253;73365;-53
2023/04/28 07:55:07;;;;;;;2.90;2.50;;;;;;;9.65;100.00;100595.61;105736;1259;63016;-54
2023/04/28 07:57:34;;;;;;;6.70;4.60;;;;;;;9.66;100.00;100586.48;105874;1258;61190;-53
2023/04/28 08:00:02;;;;;;;4.60;2.20;;;;;;;9.64;100.00;100566.86;105560;1266;74392;-53
2023/04/28 08:03:28;;;;;;;2.20;2.00;;;;;;;9.69;100.00;100546.81;102974;1289;600650;-51
2023/04/28 08:05:57;;;;;;;2.80;2.00;;;;;;;9.66;100.00;100534.11;104841;1267;62578;-51
2023/04/28 08:08:25;;;;;;;2.50;2.10;;;;;;;9.67;100.00;100530.83;104890;1264;61665;-53
2023/04/28 08:10:53;;;;;;;3.20;2.00;;;;;;;9.63;100.00;100521.05;104828;1266;73053;-53
2023/04/28 08:13:20;;;;;;;2.00;1.70;;;;;;;9.65;100.00;100528.08;104895;1263;67503;-53
2023/04/28 08:15:48;;;;;;;4.00;1.70;;;;;;;9.66;100.00;100539.28;105444;1260;74409;-54
2023/04/28 08:18:15;;;;;;;2.90;1.90;;;;;;;9.63;100.00;100542.59;105367;1262;238070;-54
2023/04/28 08:20:42;;;;;;;1.50;1.50;;;;;;;9.61;100.00;100546.58;105612;1261;61449;-53
2023/04/28 08:23:09;;;;;;;3.40;1.50;;;;;;;9.62;100.00;100556.38;105573;1262;74790;-53
2023/04/28 08:25:36;;;;;;;2.00;1.80;;;;;;;9.65;100.00;100566.85;105651;1257;67358;-51
2023/04/28 08:28:05;;;;;;;4.00;1.80;;;;;;;9.67;100.00;100580.95;105593;1261;74126;-51
2023/04/28 08:30:32;;;;;;;1.70;1.60;;;;;;;9.71;100.00;100595.38;105638;1262;63667;-51
2023/04/28 08:32:59;;;;;;;1.80;1.70;;;;;;;9.77;100.00;100600.82;105597;1256;61523;-52
2023/04/28 08:35:26;;;;;;;1.50;1.40;;;;;;;9.87;100.00;100605.01;105582;1256;74331;-55
2023/04/28 08:37:54;;;;;;;2.40;1.60;;;;;;;9.94;100.00;100600.09;105482;1257;67147;-53
2023/04/28 08:40:23;;;;;;;2.40;1.70;;;;;;;9.96;100.00;100578.52;105526;1262;75317;-52
2023/04/28 08:42:50;;;;;;;1.80;1.70;;;;;;;9.96;100.00;100560.40;105597;1256;63828;-53
2023/04/28 08:45:17;;;;;;;1.90;1.80;;;;;;;9.94;100.00;100545.09;105312;1264;62564;-54
2023/04/28 08:47:48;;;;;;;2.30;2.20;;;;;;;9.94;100.00;100537.67;105578;1261;74128;-52
2023/04/28 08:50:15;;;;;;;2.70;2.00;;;;;;;9.97;100.00;100540.39;105541;1257;65193;-52
2023/04/28 08:52:42;;;;;;;2.40;2.20;;;;;;;9.98;100.00;100524.19;105453;1256;75073;-52
2023/04/28 08:55:11;;;;;;;3.70;2.10;;;;;;;9.97;100.00;100526.08;105681;1259;63256;-52
2023/04/28 08:57:39;;;;;;;4.20;2.10;;;;;;;9.98;100.00;100520.39;105766;1253;62727;-52
2023/04/28 09:00:07;;;;;;;4.00;1.70;;;;;;;9.99;100.00;100521.76;105770;1253;74478;-52
2023/04/28 09:02:36;;;;;;;2.00;1.90;;;;;;;10.04;100.00;100529.10;105803;1257;67107;-52
2023/04/28 09:05:06;;;;;;;2.20;2.10;;;;;;;10.08;100.00;100529.89;105754;1256;74112;-52
2023/04/28 09:07:35;;;;;;;2.10;2.00;;;;;;;10.13;100.00;100522.08;105790;1259;64279;-53
2023/04/28 09:10:22;;;;;;;3.70;1.90;;;;;;;10.13;100.00;100500.68;105825;1253;62379;-53
2023/04/28 09:12:53;;;;;;;2.10;1.90;;;;;;;10.14;100.00;100495.14;105931;1251;74449;-52
2023/04/28 09:15:34;;;;;;;2.20;2.10;;;;;;;10.18;100.00;100491.80;105830;1253;67164;-53
2023/04/28 09:18:03;;;;;;;2.30;2.10;;;;;;;10.18;100.00;100471.63;105817;1254;74697;-53
2023/04/28 09:20:31;;;;;;;3.30;2.10;;;;;;;10.14;100.00;100454.27;105857;1253;62183;-53
2023/04/28 09:23:16;;;;;;;2.20;1.90;;;;;;;10.16;100.00;100455.63;105861;1253;62703;-53
2023/04/28 09:26:04;;;;;;;3.70;2.10;;;;;;;10.26;100.00;100475.64;105930;1253;74813;-52
2023/04/28 09:28:31;;;;;;;2.20;2.10;;;;;;;10.34;100.00;100472.73;105802;1253;67735;-52
2023/04/28 09:30:58;;;;;;;2.20;2.10;;;;;;;10.42;100.00;100465.73;105780;1257;75193;-51
2023/04/28 09:33:26;;;;;;;4.20;2.70;;;;;;;10.49;100.00;100450.27;105752;1253;63386;-53
2023/04/28 09:35:53;;;;;;;3.50;2.60;;;;;;;10.53;100.00;100424.13;105786;1259;61716;-51
2023/04/28 09:38:21;;;;;;;2.80;2.20;;;;;;;10.63;100.00;100415.30;105803;1251;74658;-51
2023/04/28 09:40:52;;;;;;;2.40;2.20;;;;;;;10.75;100.00;100409.38;105877;1253;65221;-51
2023/04/28 09:43:37;;;;;;;2.50;2.40;;;;;;;10.85;100.00;100390.20;105913;1254;73893;-55
2023/04/28 09:46:05;;;;;;;2.50;2.40;;;;;;;10.82;100.00;100336.23;105734;1253;63512;-55
2023/04/28 09:48:36;;;;;;;3.40;2.20;;;;;;;10.78;100.00;100310.27;105650;1257;61376;-53
2023/04/28 09:51:05;;;;;;;6.10;3.10;;;;;;;10.75;100.00;100304.80;105816;1254;74439;-55
2023/04/28 09:53:33;;;;;;;8.60;2.50;;;;;;;10.67;100.00;100288.89;105832;1257;66629;-54
2023/04/28 09:56:02;;;;;;;2.70;2.50;;;;;;;10.59;100.00;100287.86;105872;1258;75021;-52
2023/04/28 09:58:31;;;;;;;5.90;2.80;;;;;;;10.59;100.00;100291.13;105820;1258;61673;-52
2023/04/28 10:00:59;;;;;;;5.60;3.10;;;;;;;10.61;100.00;100300.94;105850;1257;61724;-52
2023/04/28 10:03:29;;;;;;;4.10;2.80;;;;;;;10.66;100.00;100306.88;105826;1259;74858;-52
2023/04/28 10:05:58;;;;;;;3.90;2.70;;;;;;;10.71;100.00;100306.77;105866;1258;66275;-52
2023/04/28 10:08:26;;;;;;;4.30;3.90;;;;;;;10.71;100.00;100309.86;105904;1254;74278;-51
2023/04/28 10:10:53;;;;;;;4.20;3.80;;;;;;;10.61;100.00;100307.33;105872;1253;63760;-52
2023/04/28 10:13:21;;;;;;;3.40;2.90;;;;;;;10.47;100.00;100308.30;105770;1251;62752;-52
2023/04/28 10:15:49;;;;;;;5.30;3.00;;;;;;;10.38;100.00;100329.31;105883;1253;74419;-52
2023/04/28 10:18:17;;;;;;;3.10;2.90;;;;;;;10.32;100.00;100345.98;105847;1254;66648;-51
2023/04/28 10:20:46;;;;;;;4.00;2.30;;;;;;;10.32;100.00;100363.24;105794;1253;74440;-52
2023/04/28 10:23:40;;;;;;;5.60;3.10;;;;;;;10.32;100.00;100375.30;105860;1254;63242;-52
2023/04/28 10:26:12;;;;;;;5.40;3.10;;;;;;;10.32;100.00;100391.01;105851;1251;62563;-52
2023/04/28 10:28:50;;;;;;;4.80;3.10;;;;;;;10.37;100.00;100401.63;105890;1254;75323;-52
2023/04/28 10:31:22;;;;;;;6.80;4.50;;;;;;;10.40;100.00;100400.89;105826;1253;66433;-51
2023/04/28 10:33:49;;;;;;;3.00;2.80;;;;;;;10.37;100.00;100390.23;105871;1254;73816;-50
2023/04/28 10:36:46;;;;;;;7.10;3.20;;;;;;;10.30;100.00;100378.45;105706;1253;63884;-52
2023/04/28 10:39:14;;;;;;;4.60;2.30;;;;;;;10.21;100.00;100379.30;105877;1259;62512;-53
2023/04/28 10:41:41;;;;;;;2.70;2.50;;;;;;;10.15;100.00;100384.92;105811;1259;75773;-52
2023/04/28 10:44:27;;;;;;;3.20;2.50;;;;;;;10.12;100.00;100402.58;105670;1258;66125;-51
2023/04/28 10:47:05;;;;;;;;;;;;;;;10.09;100.00;100414.00;105805;1254;73852;-51
2023/04/28 10:49:56;;;;;;;4.20;3.20;;;;;;;10.06;100.00;100416.28;105877;1253;61999;-53
2023/04/28 10:52:36;;;;;;;3.10;2.70;;;;;;;10.04;100.00;100426.16;105821;1253;62955;-51
2023/04/28 10:55:25;;;;;;;4.30;2.50;;;;;;;10.05;100.00;100425.62;105853;1253;75851;-53
2023/04/28 10:58:15;;;;;;;3.80;3.30;;;;;;;10.06;100.00;100433.52;105838;1259;65868;-53
2023/04/28 11:00:52;;;;;;;5.40;2.90;;;;;;;10.09;100.00;100435.56;105778;1254;74272;-51
2023/04/28 11:03:52;;;;;;;5.00;3.20;;;;;;;10.11;100.00;100431.04;105860;1253;63799;-51
2023/04/28 11:06:25;;;;;;;3.50;3.20;;;;;;;10.17;100.00;100435.08;105844;1258;61758;-51
2023/04/28 11:08:56;;;;;;;2.70;2.50;;;;;;;10.20;100.00;100425.88;105893;1254;74891;-51
2023/04/28 11:11:37;;;;;;;2.80;2.60;;;;;;;10.24;100.00;100415.67;105868;1257;66609;-52
2023/04/28 11:14:17;;;;;;;3.70;2.90;;;;;;;10.30;100.00;100404.50;105837;1257;74242;-52
2023/04/28 11:16:58;;;;;;;4.80;3.10;;;;;;;10.32;100.00;100392.56;105896;1259;64466;-52
2023/04/28 11:19:30;;;;;;;4.60;3.00;;;;;;;10.36;100.00;100387.33;105890;1254;62854;-52
2023/04/28 11:22:01;;;;;;;2.90;2.60;;;;;;;10.35;100.00;100374.39;105817;1259;75295;-52